Time;durP1;ratioP1;P1;durP2;ratioP2;P2;SDS_P1;SDS_P2;PMS_P1;PMS_P2;Temp;Humidity;BMP_temperature;BMP_pressure;BME280_temperature;BME280_humidity;BME280_pressure;Samples;Min_cycle;Max_cycle;Signal;HPM_P1;HPM_P2
2022/11/15 00:00:50;;;;;;;401.33;384.58;;;5.70;99.90;;;;;;5050908;28;20033;-82
2022/11/15 00:03:26;;;;;;;407.00;389.75;;;5.50;99.90;;;;;;5050685;28;20788;-83
2022/11/15 00:05:51;;;;;;;384.75;368.52;;;5.50;99.90;;;;;;5067535;28;20039;-83
2022/11/15 00:08:17;;;;;;;381.60;365.73;;;5.50;99.90;;;;;;5047717;28;20033;-85
2022/11/15 00:10:55;;;;;;;355.23;340.33;;;5.40;99.90;;;;;;5069010;28;20029;-82
2022/11/15 00:13:21;;;;;;;294.05;282.05;;;5.30;99.90;;;;;;5067336;28;20668;-82
2022/11/15 00:15:47;;;;;;;397.80;381.13;;;5.40;99.90;;;;;;5030705;28;20024;-83
2022/11/15 00:18:14;;;;;;;416.63;398.77;;;5.40;99.90;;;;;;5032526;28;20033;-84
2022/11/15 00:20:40;;;;;;;403.50;386.50;;;5.20;99.90;;;;;;5069013;28;20033;-82
2022/11/15 00:23:06;;;;;;;397.65;381.10;;;5.20;99.90;;;;;;5030855;28;20037;-84
2022/11/15 00:25:32;;;;;;;403.42;386.35;;;5.20;99.90;;;;;;5067030;28;20024;-83
2022/11/15 00:27:58;;;;;;;391.42;375.17;;;5.20;99.90;;;;;;5068689;28;20095;-78
2022/11/15 00:30:25;;;;;;;400.25;383.80;;;5.30;99.90;;;;;;5049162;28;20037;-79
2022/11/15 00:32:50;;;;;;;405.25;388.73;;;5.40;99.90;;;;;;5061148;28;20041;-79
2022/11/15 00:35:17;;;;;;;418.88;401.40;;;5.50;99.90;;;;;;5068416;28;20039;-78
2022/11/15 00:37:44;;;;;;;416.33;398.55;;;5.50;99.90;;;;;;5068058;28;20032;-81
2022/11/15 00:40:12;;;;;;;408.90;391.25;;;5.60;99.90;;;;;;5068472;28;20027;-81
2022/11/15 00:42:41;;;;;;;386.88;371.08;;;5.60;99.90;;;;;;5050353;28;20052;-83
2022/11/15 00:45:08;;;;;;;359.92;344.13;;;5.60;99.90;;;;;;5067436;28;20040;-78
2022/11/15 00:47:36;;;;;;;361.88;347.35;;;5.60;99.90;;;;;;5042981;28;20032;-81
2022/11/15 00:50:02;;;;;;;378.63;362.70;;;5.60;99.90;;;;;;5044460;28;20033;-84
2022/11/15 00:52:28;;;;;;;325.23;312.02;;;5.50;99.90;;;;;;5065937;28;20036;-82
2022/11/15 00:54:53;;;;;;;342.83;328.08;;;5.50;99.90;;;;;;5031141;28;20035;-84
2022/11/15 00:57:19;;;;;;;359.58;344.75;;;5.50;99.90;;;;;;5068522;28;20433;-83
2022/11/15 00:59:45;;;;;;;325.15;311.70;;;5.50;99.90;;;;;;5067761;28;20063;-82
2022/11/15 01:02:10;;;;;;;382.02;366.00;;;5.50;99.90;;;;;;5045832;28;20067;-83
2022/11/15 01:04:36;;;;;;;296.25;284.33;;;5.40;99.90;;;;;;5064065;28;20510;-83
2022/11/15 01:07:02;;;;;;;381.65;365.83;;;5.30;99.90;;;;;;5067481;28;20087;-84
2022/11/15 01:09:28;;;;;;;358.45;343.02;;;5.30;99.90;;;;;;5049942;28;20034;-83
2022/11/15 01:11:53;;;;;;;397.70;381.33;;;5.40;99.90;;;;;;5049851;28;20096;-85
2022/11/15 01:14:19;;;;;;;351.02;336.70;;;5.30;99.90;;;;;;5049367;28;20514;-83
2022/11/15 01:16:44;;;;;;;399.00;382.30;;;5.30;99.90;;;;;;5064037;28;20029;-82
2022/11/15 01:19:10;;;;;;;381.80;365.83;;;5.20;99.90;;;;;;5015781;28;20029;-84
2022/11/15 01:21:36;;;;;;;364.25;349.60;;;5.10;99.90;;;;;;5029137;28;20021;-85
2022/11/15 01:24:01;;;;;;;374.20;358.92;;;5.10;99.90;;;;;;5066556;28;20059;-82
2022/11/15 01:26:27;;;;;;;373.67;358.17;;;5.00;99.90;;;;;;5048615;28;20075;-85
2022/11/15 01:28:52;;;;;;;347.65;333.58;;;4.90;99.90;;;;;;5049825;28;20059;-81
2022/11/15 01:31:21;;;;;;;328.52;315.17;;;4.80;99.90;;;;;;5045919;28;20060;-83
2022/11/15 01:33:48;;;;;;;345.92;331.67;;;4.70;99.90;;;;;;5048921;28;20707;-81
2022/11/15 01:36:16;;;;;;;321.67;308.30;;;4.70;99.90;;;;;;5067244;28;20031;-84
2022/11/15 01:38:43;;;;;;;355.70;340.85;;;4.40;99.90;;;;;;5064235;28;20139;-84
2022/11/15 01:41:17;;;;;;;397.27;380.75;;;4.40;99.90;;;;;;5065388;28;20494;-83
2022/11/15 01:43:43;;;;;;;333.08;318.70;;;4.20;99.90;;;;;;5066726;28;20089;-83
2022/11/15 01:46:21;;;;;;;312.13;299.50;;;4.20;99.90;;;;;;5059606;28;20036;-84
2022/11/15 01:48:50;;;;;;;296.30;284.65;;;4.20;99.90;;;;;;5064338;28;20194;-85
2022/11/15 01:51:18;;;;;;;295.33;283.43;;;4.20;99.90;;;;;;5048855;28;20490;-84
2022/11/15 01:53:47;;;;;;;289.85;278.58;;;4.20;99.90;;;;;;5029444;28;20343;-85
2022/11/15 01:56:18;;;;;;;264.80;254.30;;;4.20;99.90;;;;;;5041379;28;20685;-85
2022/11/15 01:58:44;;;;;;;;;;;4.10;99.90;;;;;;5043812;28;20036;-85
2022/11/15 02:01:11;;;;;;;248.18;238.13;;;4.20;99.90;;;;;;5063318;28;19969;-86
2022/11/15 02:03:55;;;;;;;283.40;272.17;;;4.20;99.90;;;;;;5047982;28;20082;-85
2022/11/15 02:06:22;;;;;;;292.10;280.35;;;4.20;99.90;;;;;;5061913;28;20482;-85
2022/11/15 02:08:49;;;;;;;286.90;275.52;;;4.10;99.90;;;;;;5065370;28;20039;-81
2022/11/15 02:11:16;;;;;;;311.35;298.60;;;4.10;99.90;;;;;;5046822;28;20036;-81
2022/11/15 02:13:44;;;;;;;305.55;293.58;;;4.10;99.90;;;;;;5047814;28;20036;-83
2022/11/15 02:16:47;;;;;;;309.83;297.13;;;4.00;99.90;;;;;;5045162;28;20047;-85
2022/11/15 02:19:22;;;;;;;276.88;265.98;;;3.90;99.90;;;;;;5042721;28;20064;-84
2022/11/15 02:22:14;;;;;;;299.55;287.67;;;4.00;99.90;;;;;;5063835;28;20043;-82
2022/11/15 02:24:49;;;;;;;297.30;285.52;;;4.00;99.90;;;;;;5059862;28;20021;-81
2022/11/15 02:27:35;;;;;;;333.83;319.85;;;4.10;99.90;;;;;;5063490;28;20036;-84
2022/11/15 02:30:30;;;;;;;315.70;303.10;;;4.10;99.90;;;;;;5061837;28;20645;-83
2022/11/15 02:33:09;;;;;;;332.15;318.73;;;4.10;99.90;;;;;;5063924;28;20041;-82
2022/11/15 02:35:45;;;;;;;312.10;299.38;;;4.10;99.90;;;;;;5030453;28;20838;-81
2022/11/15 02:38:43;;;;;;;314.27;301.60;;;4.00;99.90;;;;;;5048320;28;20020;-84
2022/11/15 02:41:17;;;;;;;284.85;273.40;;;3.90;99.90;;;;;;5024785;28;20102;-84
2022/11/15 02:44:00;;;;;;;302.55;290.30;;;3.90;99.90;;;;;;5041454;28;20025;-82
2022/11/15 02:49:26;;;;;;;262.25;250.15;;;3.90;99.90;;;;;;5051003;28;20067;-83
2022/11/15 02:51:54;;;;;;;295.20;283.15;;;3.60;99.90;;;;;;5048264;28;20659;-85
2022/11/15 02:54:31;;;;;;;301.27;288.90;;;3.70;99.90;;;;;;5065100;28;20040;-83
2022/11/15 02:57:05;;;;;;;317.55;304.35;;;3.80;99.90;;;;;;5048274;28;20021;-83
2022/11/15 02:59:37;;;;;;;274.75;263.83;;;3.80;99.90;;;;;;5048322;28;20028;-81
2022/11/15 03:02:39;;;;;;;297.50;285.17;;;3.90;99.90;;;;;;5043162;28;20031;-81
2022/11/15 03:05:10;;;;;;;275.20;264.15;;;3.90;99.90;;;;;;5053175;28;20555;-81
2022/11/15 03:07:51;;;;;;;275.58;264.40;;;4.00;99.90;;;;;;5044529;28;20064;-81
2022/11/15 03:10:35;;;;;;;275.58;264.60;;;4.00;99.90;;;;;;5065509;28;20021;-83
2022/11/15 03:13:21;;;;;;;275.05;264.05;;;4.00;99.90;;;;;;5063276;28;20040;-82
2022/11/15 03:15:57;;;;;;;273.38;262.35;;;4.10;99.90;;;;;;5062945;28;20024;-86
2022/11/15 03:18:31;;;;;;;303.85;291.98;;;4.10;99.90;;;;;;5063260;28;20028;-86
2022/11/15 03:21:00;;;;;;;306.73;294.50;;;4.10;99.90;;;;;;5066047;28;20028;-81
2022/11/15 03:23:28;;;;;;;288.58;276.85;;;4.10;99.90;;;;;;5065540;28;20037;-84
2022/11/15 03:25:56;;;;;;;323.73;309.77;;;4.00;99.90;;;;;;5066294;28;20102;-85
2022/11/15 03:28:32;;;;;;;305.80;293.73;;;4.10;99.90;;;;;;5068853;28;20040;-85
2022/11/15 03:31:00;;;;;;;296.92;285.35;;;4.10;99.90;;;;;;5068420;28;20646;-85
2022/11/15 03:33:27;;;;;;;287.27;276.02;;;4.20;99.90;;;;;;5068195;28;20559;-84
2022/11/15 03:35:55;;;;;;;289.08;276.58;;;4.10;99.90;;;;;;5065132;28;20490;-82
2022/11/15 03:38:31;;;;;;;301.48;289.77;;;4.20;99.90;;;;;;5069504;28;20059;-81
2022/11/15 03:41:00;;;;;;;295.35;283.70;;;4.30;99.90;;;;;;5050229;28;20502;-83
2022/11/15 03:43:36;;;;;;;267.35;257.05;;;4.30;99.90;;;;;;5032440;28;20044;-82
2022/11/15 03:46:26;;;;;;;257.08;247.15;;;4.30;99.90;;;;;;5069427;28;20029;-81
2022/11/15 03:49:06;;;;;;;301.90;290.05;;;4.30;99.90;;;;;;5047129;28;20063;-82
2022/11/15 03:51:32;;;;;;;257.13;246.70;;;4.20;99.90;;;;;;5048957;28;20036;-83
2022/11/15 03:53:57;;;;;;;279.17;268.20;;;4.20;99.90;;;;;;5067595;28;20516;-80
2022/11/15 03:56:23;;;;;;;271.30;260.65;;;4.20;99.90;;;;;;5069306;28;20032;-82
2022/11/15 03:58:50;;;;;;;295.48;283.67;;;4.30;99.90;;;;;;5048764;28;20028;-83
2022/11/15 04:01:15;;;;;;;278.60;267.73;;;4.40;99.90;;;;;;5069171;28;20040;-84
2022/11/15 04:03:41;;;;;;;281.33;269.95;;;4.30;99.90;;;;;;5069536;28;20524;-82
2022/11/15 04:06:08;;;;;;;240.57;230.48;;;4.30;99.90;;;;;;5066515;28;20037;-84
2022/11/15 04:08:33;;;;;;;278.75;267.17;;;4.20;99.90;;;;;;5015697;28;20045;-83
2022/11/15 04:10:59;;;;;;;306.50;293.90;;;4.30;99.90;;;;;;5068708;28;20025;-84
2022/11/15 04:13:24;;;;;;;311.90;299.02;;;4.20;99.90;;;;;;5050960;28;20102;-80
2022/11/15 04:15:51;;;;;;;287.65;276.20;;;4.20;99.90;;;;;;5065165;28;20032;-83
2022/11/15 04:18:16;;;;;;;275.48;263.52;;;4.10;99.90;;;;;;5067888;28;20032;-85
2022/11/15 04:26:16;;;;;;;238.52;229.07;;;4.00;99.90;;;;;;5068698;28;20124;-81
2022/11/15 04:31:46;;;;;;;256.10;245.25;;;3.90;99.90;;;;;;4957949;28;20035;-82
2022/11/15 04:34:12;;;;;;;223.23;213.77;;;3.80;99.90;;;;;;4953975;28;20611;-83
2022/11/15 04:39:23;;;;;;;246.65;237.13;;;3.80;99.90;;;;;;5069058;28;20083;-82
2022/11/15 04:41:48;;;;;;;243.60;234.07;;;3.90;99.90;;;;;;5049662;28;20405;-81
2022/11/15 04:44:14;;;;;;;267.05;256.42;;;3.90;99.90;;;;;;5033945;28;20032;-83
2022/11/15 04:46:39;;;;;;;256.25;246.13;;;3.90;99.90;;;;;;5050342;28;20033;-83
2022/11/15 04:49:05;;;;;;;265.40;254.77;;;4.00;99.90;;;;;;5041022;28;20152;-81
2022/11/15 04:51:32;;;;;;;259.52;249.32;;;4.00;99.90;;;;;;5013950;28;20506;-80
2022/11/15 04:53:57;;;;;;;243.57;233.93;;;4.10;99.90;;;;;;5030273;28;20388;-84
2022/11/15 04:56:23;;;;;;;259.90;249.45;;;4.00;99.90;;;;;;5030101;28;20037;-82
2022/11/15 04:58:49;;;;;;;276.50;265.42;;;4.10;99.90;;;;;;5039721;28;20120;-81
2022/11/15 05:01:16;;;;;;;272.63;261.92;;;4.10;99.90;;;;;;5030320;28;20120;-83
2022/11/15 05:06:29;;;;;;;251.93;241.70;;;3.90;99.90;;;;;;5037324;28;20091;-81
2022/11/15 05:08:56;;;;;;;261.92;250.48;;;3.90;99.90;;;;;;5030442;28;20689;-82
2022/11/15 05:11:22;;;;;;;262.65;251.02;;;3.90;99.90;;;;;;5048762;28;20052;-83
2022/11/15 05:13:49;;;;;;;280.25;268.80;;;4.00;99.90;;;;;;5024022;28;20087;-85
2022/11/15 05:16:14;;;;;;;238.32;228.60;;;4.10;99.90;;;;;;5047177;28;20580;-80
2022/11/15 05:18:40;;;;;;;264.77;254.07;;;4.10;99.90;;;;;;5045823;28;20021;-81
2022/11/15 05:21:15;;;;;;;270.42;259.88;;;4.10;99.90;;;;;;5047787;28;20068;-83
2022/11/15 05:23:44;;;;;;;174.40;167.00;;;3.90;99.90;;;;;;5011644;28;20030;-80
2022/11/15 05:26:10;;;;;;;237.40;228.05;;;4.00;99.90;;;;;;5024670;28;20033;-83
2022/11/15 05:28:36;;;;;;;260.33;250.30;;;3.90;99.90;;;;;;5048568;28;20033;-84
2022/11/15 05:31:06;;;;;;;236.18;226.68;;;3.80;99.90;;;;;;5029927;28;20047;-81
2022/11/15 05:33:35;;;;;;;228.18;219.15;;;3.90;99.90;;;;;;5031560;28;20031;-84
2022/11/15 05:36:06;;;;;;;270.85;260.02;;;3.90;99.90;;;;;;5012791;28;20045;-83
2022/11/15 05:38:32;;;;;;;286.35;275.00;;;4.00;99.90;;;;;;5030334;28;20079;-79
2022/11/15 05:41:00;;;;;;;231.80;222.98;;;3.90;99.90;;;;;;5029953;28;20098;-81
2022/11/15 05:43:26;;;;;;;235.90;226.75;;;3.80;99.90;;;;;;5043789;28;20028;-82
2022/11/15 05:45:52;;;;;;;242.23;232.43;;;3.90;99.90;;;;;;5048623;28;20800;-80
2022/11/15 05:48:19;;;;;;;236.77;227.50;;;4.00;99.90;;;;;;5033554;28;20029;-79
2022/11/15 05:50:47;;;;;;;237.15;228.20;;;4.00;99.90;;;;;;5033731;28;20066;-84
2022/11/15 05:53:15;;;;;;;224.38;215.82;;;4.00;99.90;;;;;;5068907;28;20029;-81
2022/11/15 05:55:41;;;;;;;240.35;230.82;;;3.90;99.90;;;;;;5044548;28;20169;-82
2022/11/15 05:58:10;;;;;;;245.75;235.85;;;3.90;99.90;;;;;;5061922;28;20044;-90
2022/11/15 06:00:40;;;;;;;246.88;237.02;;;3.70;99.90;;;;;;5049291;28;20036;-82
2022/11/15 06:03:05;;;;;;;247.35;237.45;;;3.50;99.90;;;;;;5065251;28;20120;-79
2022/11/15 06:05:31;;;;;;;265.95;255.18;;;3.70;99.90;;;;;;5063990;28;20179;-80
2022/11/15 06:07:58;;;;;;;253.70;243.52;;;3.70;99.90;;;;;;5045953;28;20450;-81
2022/11/15 06:10:26;;;;;;;229.48;220.07;;;3.70;99.90;;;;;;5044507;28;20028;-83
2022/11/15 06:13:04;;;;;;;230.07;220.77;;;3.80;99.90;;;;;;5059918;28;20029;-84
2022/11/15 06:15:31;;;;;;;185.60;178.13;;;3.60;99.90;;;;;;5065581;28;20483;-81
2022/11/15 06:17:57;;;;;;;226.13;217.32;;;3.60;99.90;;;;;;5049932;28;20376;-81
2022/11/15 06:20:26;;;;;;;200.43;192.50;;;3.60;99.90;;;;;;5060126;28;20024;-83
2022/11/15 06:23:00;;;;;;;218.23;209.63;;;3.50;99.90;;;;;;5042912;28;20039;-80
2022/11/15 06:25:27;;;;;;;216.88;207.40;;;3.50;99.90;;;;;;5063981;28;20028;-84
2022/11/15 06:27:57;;;;;;;266.63;255.82;;;3.20;99.90;;;;;;5045640;28;20038;-82
2022/11/15 06:30:26;;;;;;;265.00;254.43;;;3.00;99.90;;;;;;5045075;28;20032;-82
2022/11/15 06:32:57;;;;;;;244.82;234.18;;;3.00;99.90;;;;;;5046561;28;20040;-84
2022/11/15 06:35:24;;;;;;;279.10;267.83;;;3.00;99.90;;;;;;5063110;28;20024;-79
2022/11/15 06:37:50;;;;;;;235.30;226.23;;;3.00;99.90;;;;;;5055838;28;20024;-80
2022/11/15 06:40:15;;;;;;;241.02;228.68;;;2.90;99.90;;;;;;5038539;28;20032;-79
2022/11/15 06:42:41;;;;;;;255.98;244.48;;;3.00;99.90;;;;;;5043190;28;20032;-80
2022/11/15 06:45:07;;;;;;;253.77;236.32;;;3.00;99.90;;;;;;5045068;28;20032;-78
2022/11/15 06:47:33;;;;;;;268.35;251.82;;;3.00;99.90;;;;;;5047145;28;20036;-81
2022/11/15 06:49:59;;;;;;;281.67;265.77;;;2.90;99.90;;;;;;5045632;28;20675;-84
2022/11/15 06:52:24;;;;;;;337.38;319.13;;;2.90;99.90;;;;;;5065700;28;20601;-80
2022/11/15 06:54:51;;;;;;;279.02;264.52;;;3.00;99.90;;;;;;5066288;28;20545;-81
2022/11/15 06:57:17;;;;;;;209.20;198.90;;;3.10;99.90;;;;;;5063617;28;20486;-82
2022/11/15 06:59:43;;;;;;;264.48;253.88;;;3.20;99.90;;;;;;5033274;28;20052;-82
2022/11/15 07:02:14;;;;;;;286.73;274.88;;;3.10;99.90;;;;;;5050864;28;20056;-81
2022/11/15 07:04:41;;;;;;;283.55;271.75;;;3.10;99.90;;;;;;5050119;28;20040;-79
2022/11/15 07:07:07;;;;;;;280.88;269.30;;;3.10;99.90;;;;;;5069791;28;20386;-84
2022/11/15 07:09:32;;;;;;;306.33;293.83;;;3.10;99.90;;;;;;5034314;28;20086;-78
2022/11/15 07:11:59;;;;;;;284.60;273.35;;;3.20;99.90;;;;;;5048133;28;20033;-83
2022/11/15 07:14:25;;;;;;;295.92;283.40;;;3.20;99.90;;;;;;5051760;28;20033;-78
2022/11/15 07:16:51;;;;;;;319.73;306.70;;;3.10;99.90;;;;;;5030430;28;20086;-79
2022/11/15 07:19:16;;;;;;;308.45;295.42;;;3.20;99.90;;;;;;5069062;28;20039;-80
2022/11/15 07:21:42;;;;;;;320.65;307.45;;;3.20;99.90;;;;;;5051354;28;20116;-79
2022/11/15 07:24:07;;;;;;;266.23;255.45;;;3.20;99.90;;;;;;5047942;28;20155;-78
2022/11/15 07:26:33;;;;;;;288.90;276.55;;;3.00;99.90;;;;;;5047889;28;20033;-79
2022/11/15 07:28:59;;;;;;;313.02;299.58;;;3.20;99.90;;;;;;5061782;28;20071;-81
2022/11/15 07:31:25;;;;;;;305.95;292.65;;;3.20;99.90;;;;;;5034743;28;20452;-81
2022/11/15 07:33:50;;;;;;;312.83;298.08;;;3.50;99.90;;;;;;5051019;28;20124;-80
2022/11/15 07:36:16;;;;;;;304.45;289.30;;;3.80;99.90;;;;;;5069279;28;20115;-79
2022/11/15 07:38:42;;;;;;;324.02;308.88;;;4.00;99.90;;;;;;5066909;28;20041;-77
2022/11/15 07:41:07;;;;;;;321.00;304.98;;;4.20;99.90;;;;;;5050257;28;20640;-78
2022/11/15 07:43:33;;;;;;;301.33;281.33;;;4.30;99.90;;;;;;5066411;28;20029;-79
2022/11/15 07:46:04;;;;;;;317.52;289.38;;;4.40;99.90;;;;;;5047301;28;20036;-77
2022/11/15 07:48:30;;;;;;;286.98;268.17;;;4.30;99.90;;;;;;5062755;28;20127;-78
2022/11/15 07:50:56;;;;;;;340.88;305.27;;;4.40;99.90;;;;;;5061770;28;20037;-79
2022/11/15 07:53:24;;;;;;;315.35;296.75;;;4.30;99.90;;;;;;5050685;28;20069;-87
2022/11/15 07:55:49;;;;;;;289.98;271.02;;;4.30;99.90;;;;;;5068074;28;20032;-77
2022/11/15 07:58:17;;;;;;;311.73;282.98;;;4.50;99.90;;;;;;5043743;28;20039;-79
2022/11/15 08:00:43;;;;;;;318.83;289.85;;;4.70;99.90;;;;;;5048944;28;20082;-77
2022/11/15 08:03:16;;;;;;;290.38;273.00;;;4.80;99.90;;;;;;5050441;28;20033;-77
2022/11/15 08:05:49;;;;;;;253.93;234.63;;;4.90;99.90;;;;;;5033924;28;20115;-87
2022/11/15 08:08:15;;;;;;;293.35;276.75;;;4.80;99.90;;;;;;5047192;28;20064;-85
2022/11/15 08:10:41;;;;;;;287.70;261.75;;;4.90;99.90;;;;;;5046812;28;20108;-79
2022/11/15 08:13:10;;;;;;;295.75;267.88;;;5.30;99.90;;;;;;5064458;28;20159;-79
2022/11/15 08:15:37;;;;;;;240.48;215.52;;;5.20;99.90;;;;;;5048351;28;20028;-78
2022/11/15 08:18:09;;;;;;;299.55;277.40;;;5.30;99.90;;;;;;5064877;28;20029;-79
2022/11/15 08:20:35;;;;;;;358.65;319.98;;;5.40;99.90;;;;;;5045389;28;20060;-76
2022/11/15 08:23:03;;;;;;;323.35;298.65;;;5.20;99.90;;;;;;5062667;28;20478;-80
2022/11/15 08:25:31;;;;;;;294.58;279.80;;;5.30;99.90;;;;;;5050149;28;20036;-77
2022/11/15 08:28:00;;;;;;;277.05;264.92;;;5.40;99.90;;;;;;5047531;28;20036;-80
2022/11/15 08:30:26;;;;;;;279.67;267.35;;;5.40;99.90;;;;;;5051836;28;20037;-79
2022/11/15 08:32:53;;;;;;;453.30;431.60;;;5.50;99.90;;;;;;5067519;28;20044;-77
2022/11/15 08:35:19;;;;;;;333.38;319.25;;;5.60;99.90;;;;;;5066109;28;20736;-78
2022/11/15 08:37:45;;;;;;;321.70;307.52;;;5.70;99.90;;;;;;5047611;28;20119;-78
2022/11/15 08:40:11;;;;;;;354.67;339.55;;;5.90;99.90;;;;;;5066742;28;20100;-81
2022/11/15 08:42:37;;;;;;;379.95;364.55;;;6.10;99.90;;;;;;5065769;28;20033;-79
2022/11/15 08:45:04;;;;;;;277.17;265.48;;;6.30;99.90;;;;;;5067772;28;20069;-78
2022/11/15 08:47:29;;;;;;;278.98;267.25;;;6.40;99.90;;;;;;5069463;28;20036;-79
2022/11/15 08:49:55;;;;;;;286.75;274.80;;;6.50;99.90;;;;;;5068490;28;20044;-78
2022/11/15 08:52:21;;;;;;;347.65;332.92;;;6.50;99.90;;;;;;5034650;28;20060;-78
2022/11/15 08:54:46;;;;;;;370.33;354.60;;;6.80;99.90;;;;;;5051615;28;20502;-78
2022/11/15 08:57:12;;;;;;;348.42;334.15;;;7.00;99.90;;;;;;5050892;28;20056;-77
2022/11/15 08:59:38;;;;;;;294.85;282.55;;;7.10;99.90;;;;;;5050843;28;20402;-79
2022/11/15 09:02:05;;;;;;;302.00;289.65;;;7.30;99.90;;;;;;5050385;28;20082;-78
2022/11/15 09:04:31;;;;;;;214.43;205.50;;;7.30;99.90;;;;;;5068317;28;20047;-80
2022/11/15 09:06:56;;;;;;;227.57;218.02;;;7.30;99.90;;;;;;5046896;28;20517;-78
2022/11/15 09:09:23;;;;;;;220.52;211.80;;;7.30;99.90;;;;;;5062467;28;20036;-79
2022/11/15 09:11:50;;;;;;;252.73;242.27;;;7.40;99.90;;;;;;5042571;28;20763;-81
2022/11/15 09:14:17;;;;;;;238.63;228.43;;;7.50;99.90;;;;;;5066424;28;20111;-83
2022/11/15 09:16:42;;;;;;;235.50;225.45;;;7.50;99.90;;;;;;5069083;28;20028;-79
2022/11/15 09:19:08;;;;;;;221.43;212.30;;;7.60;99.90;;;;;;5065778;28;20740;-81
2022/11/15 09:21:33;;;;;;;266.08;255.02;;;7.80;99.90;;;;;;5050870;28;20056;-78
2022/11/15 09:23:59;;;;;;;265.00;253.50;;;7.80;99.90;;;;;;5033385;28;20040;-77
2022/11/15 09:26:28;;;;;;;252.68;241.68;;;8.00;99.90;;;;;;5068993;28;20571;-78
2022/11/15 09:28:53;;;;;;;205.23;196.73;;;8.00;99.90;;;;;;5047587;28;20036;-81
2022/11/15 09:31:19;;;;;;;238.38;228.43;;;8.20;99.90;;;;;;5066460;28;20077;-81
2022/11/15 09:33:46;;;;;;;171.98;164.38;;;8.30;99.90;;;;;;5051400;28;20111;-87
2022/11/15 09:36:12;;;;;;;180.32;173.30;;;8.40;99.50;;;;;;5048625;28;20029;-78
2022/11/15 09:38:38;;;;;;;203.32;194.52;;;8.50;99.30;;;;;;5068292;28;20073;-78
2022/11/15 09:41:12;;;;;;;257.08;246.68;;;8.60;99.70;;;;;;5066775;28;20040;-79
2022/11/15 09:44:06;;;;;;;189.23;181.82;;;8.60;99.70;;;;;;5065647;28;20524;-79
2022/11/15 09:46:55;;;;;;;189.90;182.50;;;8.60;99.00;;;;;;5066328;28;20093;-79
2022/11/15 09:49:21;;;;;;;167.10;160.02;;;8.60;99.40;;;;;;5067476;28;20033;-81
2022/11/15 09:51:50;;;;;;;243.02;232.70;;;8.70;99.20;;;;;;5067080;28;20114;-77
2022/11/15 09:54:28;;;;;;;218.20;209.20;;;8.70;99.90;;;;;;5049923;28;20041;-78
2022/11/15 09:57:02;;;;;;;231.43;222.10;;;8.80;99.90;;;;;;5049875;28;20020;-81
2022/11/15 09:59:46;;;;;;;264.00;253.00;;;8.90;99.90;;;;;;5063626;28;20073;-77
2022/11/15 10:02:37;;;;;;;276.02;264.30;;;8.90;99.90;;;;;;5065526;28;20016;-77
2022/11/15 10:05:06;;;;;;;225.70;216.77;;;8.80;99.90;;;;;;5037028;28;20041;-77
2022/11/15 10:07:56;;;;;;;221.75;212.75;;;8.70;99.90;;;;;;5050186;28;20098;-78
2022/11/15 10:11:00;;;;;;;204.30;196.17;;;8.80;99.50;;;;;;5067010;28;20129;-78
2022/11/15 10:13:33;;;;;;;165.60;159.10;;;9.00;99.40;;;;;;5020153;28;20049;-81
2022/11/15 10:16:27;;;;;;;187.40;179.15;;;9.10;99.00;;;;;;5067981;28;20127;-78
2022/11/15 10:19:29;;;;;;;244.30;234.40;;;9.20;98.90;;;;;;5042524;28;20032;-77
2022/11/15 10:22:38;;;;;;;134.68;128.93;;;9.20;99.90;;;;;;5065346;28;20060;-78
2022/11/15 10:25:16;;;;;;;271.27;260.27;;;9.10;99.90;;;;;;5048170;28;20503;-80
2022/11/15 10:27:44;;;;;;;276.35;265.58;;;9.00;99.90;;;;;;5067001;28;20028;-78
2022/11/15 10:30:13;;;;;;;260.15;249.18;;;9.00;99.90;;;;;;5049703;28;20032;-78
2022/11/15 10:32:41;;;;;;;275.27;264.05;;;9.10;99.90;;;;;;5049249;28;20027;-76
2022/11/15 10:35:28;;;;;;;264.73;253.10;;;9.20;99.60;;;;;;5062958;28;20036;-77
2022/11/15 10:38:09;;;;;;;266.50;255.48;;;9.30;99.40;;;;;;5043184;28;20378;-76
2022/11/15 10:40:36;;;;;;;267.48;256.65;;;9.40;99.50;;;;;;5067062;28;20020;-77
2022/11/15 10:43:11;;;;;;;313.15;300.02;;;9.50;99.20;;;;;;5049579;28;20038;-76
2022/11/15 10:45:38;;;;;;;272.52;261.55;;;9.60;99.70;;;;;;5067139;28;20034;-77
2022/11/15 10:48:12;;;;;;;265.50;254.43;;;9.60;98.10;;;;;;5062930;28;20032;-76
2022/11/15 10:50:42;;;;;;;238.63;228.98;;;9.60;98.20;;;;;;5060709;28;20075;-77
2022/11/15 10:53:22;;;;;;;288.35;276.60;;;9.80;97.90;;;;;;5065755;28;20064;-77
2022/11/15 10:55:52;;;;;;;187.90;180.85;;;9.80;98.10;;;;;;5066210;28;20082;-76
2022/11/15 10:58:26;;;;;;;194.70;186.98;;;9.90;97.10;;;;;;5067233;28;20678;-76
2022/11/15 11:00:53;;;;;;;164.73;158.40;;;9.90;96.40;;;;;;5067451;28;20052;-77
2022/11/15 11:03:39;;;;;;;204.60;196.02;;;10.00;96.30;;;;;;5063539;28;20033;-77
2022/11/15 11:06:16;;;;;;;206.80;199.07;;;10.10;96.00;;;;;;5066252;28;20574;-77
2022/11/15 11:09:00;;;;;;;190.02;182.70;;;10.10;95.30;;;;;;5063922;28;20505;-80
2022/11/15 11:11:48;;;;;;;196.00;188.52;;;10.20;95.20;;;;;;5064939;28;20101;-78
2022/11/15 11:14:22;;;;;;;185.55;178.35;;;10.30;95.40;;;;;;5047015;28;20408;-81
2022/11/15 11:16:57;;;;;;;181.68;174.77;;;10.40;95.30;;;;;;5053889;28;20021;-87
2022/11/15 11:19:29;;;;;;;197.65;190.02;;;10.50;94.20;;;;;;5062770;28;20057;-79
2022/11/15 11:22:05;;;;;;;197.00;189.27;;;10.70;94.40;;;;;;5060811;28;20020;-78
2022/11/15 11:24:56;;;;;;;193.68;186.38;;;10.70;94.10;;;;;;5061825;28;20044;-76
2022/11/15 11:27:34;;;;;;;158.88;152.63;;;10.70;93.80;;;;;;5049238;28;20048;-78
2022/11/15 11:30:02;;;;;;;178.95;172.07;;;10.70;93.20;;;;;;5064685;28;20029;-77
2022/11/15 11:32:36;;;;;;;135.75;130.18;;;10.80;93.00;;;;;;5049445;28;20025;-77
2022/11/15 11:35:22;;;;;;;188.52;180.75;;;10.80;92.20;;;;;;5065679;28;20024;-76
2022/11/15 11:38:09;;;;;;;197.10;189.15;;;11.00;92.00;;;;;;5044809;28;20135;-77
2022/11/15 11:40:34;;;;;;;141.15;135.60;;;11.00;92.40;;;;;;5046639;28;20115;-77
2022/11/15 11:43:03;;;;;;;151.75;145.65;;;11.10;91.80;;;;;;5064245;28;20534;-77
2022/11/15 11:45:51;;;;;;;195.30;187.80;;;11.30;91.40;;;;;;5062966;28;20024;-76
2022/11/15 11:48:32;;;;;;;162.68;156.23;;;11.50;92.20;;;;;;5026922;28;20093;-77
2022/11/15 11:51:00;;;;;;;;;;;11.60;91.90;;;;;;5063327;28;20037;-76
2022/11/15 11:53:54;;;;;;;72.70;69.38;;;11.70;90.70;;;;;;5066774;28;19951;-77
2022/11/15 11:56:28;;;;;;;83.70;80.03;;;11.80;90.50;;;;;;5048375;28;20611;-76
2022/11/15 11:58:56;;;;;;;186.02;178.52;;;11.90;90.40;;;;;;5046384;28;20036;-80
2022/11/15 12:01:41;;;;;;;176.98;170.15;;;12.00;91.00;;;;;;5064889;28;20025;-81
2022/11/15 12:04:26;;;;;;;178.70;171.73;;;12.10;90.80;;;;;;5029423;28;20036;-79
2022/11/15 12:07:17;;;;;;;137.25;132.10;;;12.20;90.90;;;;;;5059815;28;20020;-78
2022/11/15 12:09:45;;;;;;;;;;;12.30;90.30;;;;;;5065887;28;20036;-78
2022/11/15 12:12:18;;;;;;;71.20;68.25;;;12.20;89.60;;;;;;5068486;28;19924;-78
2022/11/15 12:14:53;;;;;;;127.68;122.75;;;12.20;90.10;;;;;;5066135;28;20029;-78
2022/11/15 12:17:24;;;;;;;144.30;138.63;;;12.00;91.00;;;;;;5066728;28;20028;-77
2022/11/15 12:19:49;;;;;;;;;;;12.10;90.50;;;;;;5067717;28;20021;-76
2022/11/15 12:22:24;;;;;;;73.68;70.38;;;12.10;90.80;;;;;;5052177;28;20093;-77
2022/11/15 12:25:03;;;;;;;98.90;94.88;;;12.30;90.50;;;;;;5072813;28;20028;-77
2022/11/15 12:27:41;;;;;;;118.18;113.60;;;12.30;90.30;;;;;;5055661;28;20520;-75
2022/11/15 12:30:19;;;;;;;137.00;131.52;;;12.40;89.80;;;;;;5070994;28;20055;-74
2022/11/15 12:32:56;;;;;;;118.75;113.85;;;12.60;89.60;;;;;;5072034;28;20032;-75
2022/11/15 12:35:41;;;;;;;102.72;98.55;;;12.50;88.30;;;;;;5071722;28;20042;-75
2022/11/15 12:38:33;;;;;;;85.80;82.35;;;12.40;88.70;;;;;;5049905;28;20057;-75
2022/11/15 12:41:15;;;;;;;86.47;82.68;;;12.40;88.60;;;;;;5065206;28;20017;-76
2022/11/15 12:43:42;;;;;;;100.82;96.88;;;12.30;88.10;;;;;;5065717;28;20572;-75
2022/11/15 12:46:29;;;;;;;125.55;120.55;;;12.40;88.20;;;;;;5066120;28;20078;-75
2022/11/15 12:48:56;;;;;;;149.60;143.50;;;12.50;87.20;;;;;;5066060;28;20052;-76
2022/11/15 12:51:42;;;;;;;105.72;101.45;;;12.50;85.20;;;;;;5051342;28;20040;-75
2022/11/15 12:54:23;;;;;;;103.45;99.25;;;12.60;86.30;;;;;;5053083;28;20553;-75